Time;durP1;ratioP1;P1;durP2;ratioP2;P2;SDS_P1;SDS_P2;PMS_P1;PMS_P2;Temp;Humidity;BMP_temperature;BMP_pressure;BME280_temperature;BME280_humidity;BME280_pressure;Samples;Min_cycle;Max_cycle;Signal;HPM_P1;HPM_P2
2022/09/11 00:01:20;;;;;;;4.45;2.25;;;;;;;9.24;100.00;101320.25;6187977;23;20049;-84
2022/09/11 00:03:46;;;;;;;4.90;2.47;;;;;;;9.13;100.00;101302.66;6187699;23;20008;-83
2022/09/11 00:06:16;;;;;;;3.72;2.22;;;;;;;10.46;100.00;101525.53;6162658;23;19993;-83
2022/09/11 00:08:43;;;;;;;5.35;2.50;;;;;;;10.83;100.00;101591.16;6213055;23;20001;-84
2022/09/11 00:57:09;;;;;;;5.38;2.60;;;;;;;11.02;100.00;101474.81;6193597;23;20032;-83
2022/09/11 00:59:39;;;;;;;5.43;2.80;;;;;;;11.71;100.00;101578.75;6160323;23;20044;-83
2022/09/11 01:02:07;;;;;;;4.97;2.45;;;;;;;11.71;100.00;101582.28;6160157;23;20022;-84
2022/09/11 01:04:32;;;;;;;4.95;2.42;;;;;;;10.27;100.00;101361.94;6159600;23;20023;-83
2022/09/11 01:06:59;;;;;;;4.20;2.80;;;;;;;11.63;100.00;101573.50;6160206;23;20006;-83
2022/09/11 01:09:30;;;;;;;9.90;2.40;;;;;;;10.37;100.00;101388.56;6159527;23;19993;-83
2022/09/11 01:12:14;;;;;;;4.75;2.40;;;;;;;11.56;100.00;101580.66;6159802;23;19995;-83
2022/09/11 01:14:51;;;;;;;6.20;2.80;;;;;;;9.82;100.00;101313.41;6160166;23;20001;-83
2022/09/11 01:17:43;;;;;;;4.97;2.58;;;;;;;11.52;100.00;101581.03;6185330;23;20045;-83
2022/09/11 01:20:42;;;;;;;5.18;2.75;;;;;;;11.51;100.00;101578.50;6185444;23;19996;-83
2022/09/11 01:23:19;;;;;;;9.80;2.40;;;;;;;11.49;100.00;101581.41;6185338;23;20036;-83
2022/09/11 01:25:54;;;;;;;6.65;2.67;;;;;;;11.47;100.00;101579.91;6159933;23;19996;-84
2022/09/11 01:28:22;;;;;;;;;;;;;;;11.37;100.00;101582.88;6159836;23;20082;-83
2022/09/11 01:30:57;;;;;;;9.05;2.72;;;;;;;9.66;100.00;101324.28;6184928;23;19913;-84
2022/09/11 01:33:35;;;;;;;4.07;2.50;;;;;;;9.56;100.00;101311.09;6185327;23;20013;-83
2022/09/11 01:36:16;;;;;;;5.07;2.92;;;;;;;10.55;100.00;101459.81;6185151;23;20020;-84
2022/09/11 01:38:58;;;;;;;6.25;2.92;;;;;;;11.27;100.00;101579.63;6185262;23;19993;-83
2022/09/11 01:41:39;;;;;;;3.17;2.65;;;;;;;9.85;100.00;101356.03;6159738;23;19998;-83
2022/09/11 01:44:14;;;;;;;6.40;2.88;;;;;;;10.21;100.00;101424.47;6159643;23;20008;-83
2022/09/11 01:46:48;;;;;;;7.90;3.00;;;;;;;9.49;100.00;101303.94;6185194;23;20073;-83
2022/09/11 02:00:17;;;;;;;5.20;2.90;;;;;;;10.31;100.00;101489.66;6208741;22;20024;-82
2022/09/11 02:02:48;;;;;;;5.18;2.90;;;;;;;9.21;100.00;101314.38;6189297;23;20012;-84
2022/09/11 02:05:22;;;;;;;5.55;2.65;;;;;;;9.21;100.00;101325.97;6189171;23;20057;-83
2022/09/11 02:08:09;;;;;;;5.22;2.75;;;;;;;10.96;100.00;101590.50;6189084;23;20020;-83
2022/09/11 02:11:02;;;;;;;7.53;2.97;;;;;;;9.33;100.00;101334.44;6189011;23;20145;-82
2022/09/11 02:13:48;;;;;;;5.10;2.53;;;;;;;9.21;100.00;101315.22;6214978;23;19989;-83
2022/09/11 02:16:24;;;;;;;4.13;2.85;;;;;;;9.35;100.00;101332.41;6189428;23;20061;-83
2022/09/11 02:19:14;;;;;;;5.70;2.92;;;;;;;10.96;100.00;101577.91;6189231;23;20003;-82
2022/09/11 02:21:40;;;;;;;4.60;3.10;;;;;;;10.41;100.00;101511.75;6182344;23;20004;-83
2022/09/11 02:24:05;;;;;;;7.68;2.80;;;;;;;9.46;100.00;101358.03;6214555;23;19997;-83
2022/09/11 02:26:37;;;;;;;5.93;3.00;;;;;;;9.28;100.00;101331.47;6214693;23;19996;-83
2022/09/11 02:45:07;;;;;;;5.88;3.08;;;;;;;9.91;100.00;101437.00;6202372;23;20063;-83
2022/09/11 02:47:45;;;;;;;6.10;2.70;;;;;;;10.92;100.00;101589.22;6214240;23;20036;-83
2022/09/11 02:50:32;;;;;;;5.45;2.50;;;;;;;10.31;100.00;101487.78;6214255;23;20063;-84
2022/09/11 02:53:11;;;;;;;7.43;2.72;;;;;;;9.60;100.00;101392.16;6190749;23;19993;-83
2022/09/11 02:56:02;;;;;;;5.75;2.55;;;;;;;9.05;100.00;101318.00;6214071;23;20016;-83
2022/09/11 02:58:35;;;;;;;6.10;2.90;;;;;;;9.03;100.00;101304.75;6209538;23;20000;-84
2022/09/11 03:01:03;;;;;;;9.38;2.70;;;;;;;9.40;100.00;101378.38;6188241;23;19993;-84
2022/09/11 03:03:41;;;;;;;3.67;2.42;;;;;;;10.81;100.00;101599.41;6189120;23;20008;-83
2022/09/11 03:06:18;;;;;;;6.05;3.10;;;;;;;9.86;100.00;101443.72;6188781;23;20017;-83
2022/09/11 03:08:44;;;;;;;4.78;2.85;;;;;;;10.05;100.00;101463.09;6184927;23;20013;-84
2022/09/11 03:11:10;;;;;;;5.10;2.92;;;;;;;9.17;100.00;101324.63;6214170;23;19997;-82
2022/09/11 03:13:39;;;;;;;7.38;2.72;;;;;;;10.25;100.00;101484.97;6214228;23;20502;-83
2022/09/11 03:16:04;;;;;;;5.00;2.53;;;;;;;9.61;100.00;101392.00;6211822;23;20044;-84
2022/09/11 03:18:30;;;;;;;5.00;2.80;;;;;;;9.78;100.00;101413.41;6188436;23;20001;-83
2022/09/11 03:20:56;;;;;;;4.70;2.78;;;;;;;10.27;100.00;101473.03;6213900;23;20024;-83
2022/09/11 03:23:22;;;;;;;6.57;2.75;;;;;;;9.43;100.00;101318.91;6214019;23;20004;-83
2022/09/11 03:25:47;;;;;;;9.80;2.90;;;;;;;9.88;100.00;101370.97;6213998;23;20008;-83
2022/09/11 03:28:13;;;;;;;4.13;2.42;;;;;;;10.47;100.00;101456.41;6188432;23;19989;-84
2022/09/11 03:30:40;;;;;;;6.53;2.88;;;;;;;11.43;100.00;101589.38;6214302;23;19993;-83
2022/09/11 03:33:06;;;;;;;6.10;2.80;;;;;;;10.24;100.00;101389.16;6188528;23;20000;-84
2022/09/11 03:35:32;;;;;;;8.90;2.95;;;;;;;10.48;100.00;101428.47;6214136;23;19996;-84
2022/09/11 03:37:58;;;;;;;7.82;3.10;;;;;;;11.20;100.00;101546.34;6188676;23;20056;-84
2022/09/11 03:40:23;;;;;;;7.03;2.70;;;;;;;10.37;100.00;101412.78;6188340;23;20003;-84
2022/09/11 04:04:47;;;;;;;5.57;3.47;;;;;;;10.21;100.00;101339.25;6125210;23;20107;-82
2022/09/11 04:07:13;;;;;;;7.63;3.00;;;;;;;10.85;100.00;101440.19;6124075;23;20003;-83
2022/09/11 04:09:38;;;;;;;5.97;3.08;;;;;;;10.81;100.00;101432.47;6124896;23;20017;-84
2022/09/11 04:12:04;;;;;;;8.32;3.70;;;;;;;10.48;100.00;101374.66;6124680;23;19993;-82
2022/09/11 04:14:30;;;;;;;7.65;3.33;;;;;;;10.80;100.00;101430.00;6124769;23;19999;-83
2022/09/11 04:16:55;;;;;;;7.47;3.28;;;;;;;11.07;100.00;101473.44;6123714;23;20014;-84
2022/09/11 04:19:22;;;;;;;5.40;3.13;;;;;;;10.05;100.00;101320.59;6124942;23;20019;-84
2022/09/11 04:21:49;;;;;;;7.85;3.15;;;;;;;11.66;100.00;101581.19;6124165;23;20013;-82
2022/09/11 04:24:15;;;;;;;7.40;2.67;;;;;;;10.47;100.00;101410.66;6124827;23;19998;-82
2022/09/11 04:26:40;;;;;;;7.90;3.22;;;;;;;11.61;100.00;101594.38;6124584;23;19993;-83
2022/09/11 04:29:06;;;;;;;6.70;3.17;;;;;;;11.56;100.00;101578.78;6123986;23;20010;-83
2022/09/11 04:31:34;;;;;;;8.80;3.30;;;;;;;10.22;100.00;101386.63;6125905;23;19998;-82
2022/09/11 04:34:00;;;;;;;6.15;3.00;;;;;;;9.75;100.00;101323.22;6126527;23;19994;-84
2022/09/11 04:36:25;;;;;;;9.35;3.53;;;;;;;9.84;100.00;101343.63;6101902;23;19987;-83
2022/09/11 04:38:56;;;;;;;6.20;3.08;;;;;;;11.02;100.00;101525.16;6125890;23;20014;-83
2022/09/11 04:41:22;;;;;;;6.28;3.42;;;;;;;10.24;100.00;101408.00;6101956;23;19991;-83
2022/09/11 04:43:48;;;;;;;5.13;2.80;;;;;;;9.97;100.00;101374.44;6125628;23;20033;-83
2022/09/11 04:46:16;;;;;;;5.38;3.58;;;;;;;11.29;100.00;101591.03;6126106;23;19990;-82
2022/09/11 04:48:51;;;;;;;6.70;3.50;;;;;;;9.54;100.00;101326.56;6125929;23;20018;-83
2022/09/11 04:51:29;;;;;;;7.38;3.42;;;;;;;10.32;100.00;101406.06;6125766;23;20030;-83
2022/09/11 04:53:56;;;;;;;9.48;3.30;;;;;;;10.14;100.00;101353.63;6128132;23;20018;-83
2022/09/11 04:56:25;;;;;;;6.43;3.22;;;;;;;10.64;100.00;101424.78;6126301;23;20011;-83
2022/09/11 04:58:55;;;;;;;7.30;3.40;;;;;;;11.00;100.00;101457.19;6126743;23;20022;-83
2022/09/11 05:01:22;;;;;;;5.05;3.60;;;;;;;11.23;100.00;101501.03;6101474;23;20009;-83
2022/09/11 05:03:48;;;;;;;8.65;3.50;;;;;;;11.73;100.00;101609.91;6121611;23;20026;-82
2022/09/11 05:06:16;;;;;;;10.02;3.40;;;;;;;10.18;100.00;101366.50;6155991;23;20006;-84
2022/09/11 05:08:43;;;;;;;8.77;3.13;;;;;;;9.92;100.00;101329.28;6130245;23;19995;-83
2022/09/11 05:11:12;;;;;;;6.53;3.50;;;;;;;10.72;100.00;101370.84;6130073;23;20014;-84
2022/09/11 05:13:38;;;;;;;9.35;3.53;;;;;;;11.16;100.00;101327.72;6155736;23;19995;-83
2022/09/11 05:16:10;;;;;;;8.48;3.58;;;;;;;13.43;100.00;101560.69;6154796;23;19994;-83
2022/09/11 05:18:39;;;;;;;5.55;3.22;;;;;;;12.80;100.00;101339.19;6155295;23;20017;-83
2022/09/11 05:21:08;;;;;;;4.80;3.00;;;;;;;13.94;100.00;101435.00;6155504;23;20037;-83
2022/09/11 05:23:34;;;;;;;6.63;2.90;;;;;;;13.94;100.00;101362.81;6130105;23;19997;-85
2022/09/11 05:28:35;;;;;;;5.07;3.15;;;;;;;13.11;100.00;101387.34;6202894;22;20011;-82
2022/09/11 05:31:01;;;;;;;6.20;3.00;;;;;;;12.39;100.00;101361.59;6188889;23;20016;-82
2022/09/11 05:33:27;;;;;;;6.63;2.92;;;;;;;12.01;100.00;101373.75;6214623;23;19996;-83
2022/09/11 05:35:54;;;;;;;7.50;3.10;;;;;;;11.64;100.00;101362.19;6187011;23;20012;-83
2022/09/11 05:38:21;;;;;;;6.95;3.17;;;;;;;11.37;100.00;101337.66;6188259;23;20013;-82
2022/09/11 05:40:50;;;;;;;5.38;3.20;;;;;;;12.36;100.00;101531.19;6214242;23;19997;-82
2022/09/11 05:43:18;;;;;;;7.32;3.15;;;;;;;11.43;100.00;101379.19;6186917;23;20016;-81
2022/09/11 05:45:44;;;;;;;6.63;3.13;;;;;;;11.45;100.00;101386.03;6186532;23;20028;-82
2022/09/11 05:48:11;;;;;;;7.22;3.20;;;;;;;11.26;100.00;101333.63;6186222;23;20369;-83
2022/09/11 05:50:37;;;;;;;4.50;2.70;;;;;;;11.72;100.00;101397.09;6180473;23;20012;-82
2022/09/11 05:53:04;;;;;;;7.15;3.05;;;;;;;11.38;100.00;101354.66;6152028;23;20004;-82
2022/09/11 05:55:36;;;;;;;7.05;3.03;;;;;;;11.81;100.00;101422.09;6148601;23;20021;-82
2022/09/11 05:58:01;;;;;;;4.05;2.90;;;;;;;11.41;100.00;101346.19;6154813;23;20030;-84
2022/09/11 06:00:28;;;;;;;6.68;3.08;;;;;;;11.86;100.00;101414.28;6178221;23;20013;-83
2022/09/11 06:02:54;;;;;;;5.57;2.95;;;;;;;11.78;100.00;101407.13;6127579;23;20009;-81
2022/09/11 06:05:20;;;;;;;7.25;2.65;;;;;;;11.72;100.00;101415.97;6173118;23;20012;-82
2022/09/11 06:07:46;;;;;;;6.05;2.90;;;;;;;11.78;100.00;101439.47;6144041;23;20084;-82
2022/09/11 06:10:11;;;;;;;6.63;3.25;;;;;;;11.42;100.00;101377.50;6154947;23;20011;-83
2022/09/11 06:12:37;;;;;;;5.43;2.90;;;;;;;11.66;100.00;101384.41;6165271;23;20005;-79
2022/09/11 06:15:02;;;;;;;5.25;2.90;;;;;;;13.31;100.00;101633.41;6156576;23;20060;-78
2022/09/11 06:17:28;;;;;;;5.32;2.92;;;;;;;13.45;100.00;101625.41;6155964;23;20310;-77
2022/09/11 06:19:53;;;;;;;5.32;3.20;;;;;;;13.34;100.00;101606.00;6130930;23;20013;-79
2022/09/11 06:22:20;;;;;;;4.53;3.30;;;;;;;13.46;100.00;101619.78;6130829;23;20024;-79
2022/09/11 06:24:46;;;;;;;5.65;3.22;;;;;;;13.57;100.00;101637.31;6128263;23;20041;-78
2022/09/11 06:27:12;;;;;;;5.88;3.42;;;;;;;13.55;100.00;101634.00;6156388;23;20005;-78
2022/09/11 06:29:37;;;;;;;3.70;2.92;;;;;;;13.54;100.00;101627.75;6155626;23;20257;-78
2022/09/11 06:32:03;;;;;;;5.78;3.40;;;;;;;13.57;100.00;101616.50;6157676;23;20060;-78
2022/09/11 06:34:30;;;;;;;6.20;3.30;;;;;;;13.71;100.00;101644.50;6115439;23;20105;-79
2022/09/11 06:36:56;;;;;;;5.15;2.88;;;;;;;13.67;100.00;101637.78;6159002;23;20089;-79
2022/09/11 06:39:21;;;;;;;6.45;3.10;;;;;;;13.73;100.00;101639.69;6130405;23;20036;-79
2022/09/11 06:41:47;;;;;;;5.93;2.85;;;;;;;13.80;100.00;101645.16;6129951;23;20017;-79
2022/09/11 06:44:14;;;;;;;4.88;2.75;;;;;;;13.83;100.00;101629.34;6105210;23;20013;-79
2022/09/11 06:46:39;;;;;;;7.03;2.70;;;;;;;14.04;100.00;101651.94;6124873;23;20085;-79
2022/09/11 06:49:05;;;;;;;4.72;2.95;;;;;;;14.07;100.00;101656.94;6128373;23;20353;-79
2022/09/11 06:51:31;;;;;;;4.47;2.90;;;;;;;14.12;100.00;101657.19;6151713;23;20035;-79
2022/09/11 06:54:01;;;;;;;7.95;3.05;;;;;;;14.42;100.00;101655.00;6182041;23;20299;-79
2022/09/11 06:56:27;;;;;;;4.93;2.80;;;;;;;14.64;100.00;101676.56;6158497;23;20284;-78
2022/09/11 06:58:53;;;;;;;7.22;3.03;;;;;;;14.39;100.00;101651.84;6185009;23;20005;-78
2022/09/11 07:01:21;;;;;;;7.60;3.17;;;;;;;13.89;100.00;101608.78;6186116;23;20012;-78
2022/09/11 07:03:52;;;;;;;5.28;3.22;;;;;;;14.19;100.00;101671.56;6185128;23;20001;-78
2022/09/11 07:06:20;;;;;;;5.63;3.00;;;;;;;14.22;100.00;101670.34;6186659;23;20015;-78
2022/09/11 07:08:51;;;;;;;4.90;2.92;;;;;;;14.22;100.00;101673.03;6184859;23;20005;-78
2022/09/11 07:11:18;;;;;;;4.03;3.03;;;;;;;14.07;100.00;101667.75;6183963;23;20011;-78
2022/09/11 07:13:44;;;;;;;6.32;3.15;;;;;;;14.21;100.00;101668.66;6160123;23;20104;-78
2022/09/11 07:16:12;;;;;;;5.55;2.80;;;;;;;14.16;100.00;101657.59;6185698;23;20415;-78
2022/09/11 07:18:39;;;;;;;6.00;2.97;;;;;;;14.23;100.00;101650.34;6184600;23;20048;-78
2022/09/11 07:21:07;;;;;;;5.72;3.15;;;;;;;14.42;100.00;101665.81;6185199;23;20005;-78
2022/09/11 07:23:33;;;;;;;6.15;2.97;;;;;;;14.41;100.00;101657.91;6184665;23;20092;-78
2022/09/11 07:26:10;;;;;;;4.18;2.78;;;;;;;14.66;100.00;101658.19;6185803;23;20045;-78
2022/09/11 07:28:38;;;;;;;3.53;2.60;;;;;;;14.84;100.00;101660.34;6184903;23;20001;-78
2022/09/11 07:31:16;;;;;;;4.18;2.72;;;;;;;14.88;100.00;101643.44;6185715;23;20013;-78
2022/09/11 07:33:47;;;;;;;4.13;2.67;;;;;;;14.76;100.00;101636.97;6183446;23;20000;-79
2022/09/11 07:36:15;;;;;;;4.47;2.42;;;;;;;15.07;100.00;101646.38;6184446;23;20005;-78
2022/09/11 07:38:42;;;;;;;6.00;2.50;;;;;;;15.20;100.00;101644.50;6184777;23;20075;-78
2022/09/11 07:41:09;;;;;;;4.43;2.53;;;;;;;15.33;100.00;101659.94;6183904;23;20005;-78
2022/09/11 07:43:38;;;;;;;6.90;2.70;;;;;;;15.31;100.00;101670.16;6185387;23;20001;-78
2022/09/11 07:46:05;;;;;;;3.75;2.20;;;;;;;15.35;100.00;101660.53;6185379;23;20009;-78
2022/09/11 07:48:31;;;;;;;6.13;2.60;;;;;;;15.46;100.00;101662.63;6186799;23;20400;-78
2022/09/11 07:50:59;;;;;;;3.83;2.50;;;;;;;15.45;100.00;101643.84;6185215;23;20017;-78
2022/09/11 07:53:25;;;;;;;4.85;2.50;;;;;;;15.44;100.00;101663.88;6160626;23;20075;-78
2022/09/11 07:55:51;;;;;;;7.13;2.65;;;;;;;15.49;100.00;101655.94;6133256;23;20009;-78
2022/09/11 07:58:16;;;;;;;4.55;2.80;;;;;;;15.50;100.00;101663.03;6133703;23;20355;-78
2022/09/11 08:00:42;;;;;;;4.97;2.60;;;;;;;15.41;100.00;101632.59;6158203;23;20024;-78
2022/09/11 08:03:07;;;;;;;4.65;2.72;;;;;;;15.59;100.00;101664.47;6160273;23;20079;-78
2022/09/11 08:05:32;;;;;;;4.30;2.90;;;;;;;15.56;100.00;101664.06;6185213;23;20029;-78
2022/09/11 08:07:58;;;;;;;4.35;2.58;;;;;;;15.61;100.00;101639.84;6159463;23;20024;-78
2022/09/11 08:10:23;;;;;;;5.65;3.00;;;;;;;15.85;100.00;101655.47;6158879;23;20025;-78
2022/09/11 08:12:48;;;;;;;5.47;2.80;;;;;;;15.92;100.00;101640.00;6158963;23;20033;-78
2022/09/11 08:15:14;;;;;;;5.07;2.83;;;;;;;16.10;100.00;101622.19;6185597;23;20016;-79
2022/09/11 08:17:39;;;;;;;4.70;3.00;;;;;;;16.33;100.00;101652.38;6185817;23;20020;-78
2022/09/11 08:20:05;;;;;;;6.07;2.88;;;;;;;16.54;100.00;101651.19;6182606;23;20009;-78
2022/09/11 08:22:31;;;;;;;4.43;2.60;;;;;;;16.43;100.00;101662.78;6158917;23;20084;-78
2022/09/11 08:24:56;;;;;;;5.68;3.03;;;;;;;16.51;100.00;101645.38;6157658;23;20101;-79
2022/09/11 08:27:22;;;;;;;5.15;3.03;;;;;;;16.58;100.00;101659.75;6159837;23;20040;-78
2022/09/11 08:29:47;;;;;;;3.72;2.50;;;;;;;16.65;100.00;101657.81;6134400;23;20020;-78
2022/09/11 08:32:12;;;;;;;4.70;2.60;;;;;;;16.58;99.37;101659.75;6134430;23;20436;-78
2022/09/11 08:34:38;;;;;;;6.88;2.75;;;;;;;16.79;98.89;101662.16;6184561;23;20415;-78
2022/09/11 08:37:03;;;;;;;6.47;2.58;;;;;;;16.90;97.52;101652.47;6184711;23;20407;-79
2022/09/11 08:39:28;;;;;;;4.70;2.75;;;;;;;16.77;96.47;101658.81;6185488;23;20257;-79
2022/09/11 08:42:07;;;;;;;5.63;2.67;;;;;;;16.65;95.89;101623.34;6156751;23;20269;-79
2022/09/11 08:44:54;;;;;;;3.80;2.85;;;;;;;17.07;93.70;101658.19;6185636;23;20012;-79
2022/09/11 08:47:24;;;;;;;6.50;2.45;;;;;;;17.19;94.17;101655.59;6155330;23;20032;-79
2022/09/11 08:50:14;;;;;;;4.22;2.60;;;;;;;17.34;93.40;101653.34;6155946;23;20005;-79
2022/09/11 08:52:41;;;;;;;4.78;2.50;;;;;;;17.43;92.99;101656.63;6180992;23;20021;-78
2022/09/11 08:55:12;;;;;;;4.65;2.58;;;;;;;17.49;91.25;101653.84;6155535;23;20005;-78
2022/09/11 08:57:48;;;;;;;4.35;2.45;;;;;;;17.43;90.51;101653.91;6181913;23;20090;-78
2022/09/11 09:00:23;;;;;;;6.45;2.70;;;;;;;17.55;88.57;101657.56;6156789;23;20093;-79
2022/09/11 09:03:17;;;;;;;3.97;2.80;;;;;;;17.40;85.72;101659.81;6163954;23;20091;-78
2022/09/11 09:05:51;;;;;;;6.70;2.97;;;;;;;17.48;86.77;101654.91;6165581;23;20455;-78
2022/09/11 09:08:48;;;;;;;7.22;2.97;;;;;;;17.55;86.14;101622.19;6158057;23;20076;-78
2022/09/11 09:11:19;;;;;;;6.35;3.00;;;;;;;17.83;86.62;101662.53;6184762;23;20016;-78
2022/09/11 09:14:15;;;;;;;7.22;2.85;;;;;;;17.73;85.32;101656.75;6157997;23;20012;-78
2022/09/11 09:16:45;;;;;;;4.55;3.15;;;;;;;17.98;87.86;101671.16;6159807;23;20012;-78
2022/09/11 09:19:31;;;;;;;7.78;3.42;;;;;;;17.91;86.41;101648.59;6186708;23;20004;-78
2022/09/11 09:22:20;;;;;;;7.15;3.30;;;;;;;18.07;85.42;101658.06;6187055;23;20407;-78
2022/09/11 09:24:53;;;;;;;4.80;3.03;;;;;;;18.04;85.83;101653.06;6183462;23;20293;-78
2022/09/11 09:27:33;;;;;;;5.57;2.70;;;;;;;17.78;85.58;101638.72;6161577;23;20012;-78
2022/09/11 09:30:02;;;;;;;8.02;2.90;;;;;;;18.00;86.44;101636.34;6159159;23;20005;-78
2022/09/11 09:32:32;;;;;;;6.38;3.05;;;;;;;18.02;85.11;101647.84;6186156;23;20203;-78
2022/09/11 09:35:04;;;;;;;5.45;3.33;;;;;;;18.13;84.64;101657.16;6184990;23;20005;-78
2022/09/11 09:37:29;;;;;;;4.78;3.10;;;;;;;18.00;84.69;101652.69;6186630;23;20457;-78
2022/09/11 09:39:55;;;;;;;4.70;2.95;;;;;;;18.19;84.89;101660.84;6160070;23;20072;-78
2022/09/11 09:42:49;;;;;;;7.57;2.88;;;;;;;18.09;83.18;101645.06;6184006;23;20019;-78
2022/09/11 09:45:37;;;;;;;5.60;3.13;;;;;;;18.10;83.84;101652.16;6186359;23;20009;-78
2022/09/11 09:48:05;;;;;;;4.50;3.10;;;;;;;18.22;83.21;101652.22;6176402;23;20009;-78
2022/09/11 09:50:34;;;;;;;5.18;2.78;;;;;;;18.39;83.09;101649.69;6185767;23;20080;-78
2022/09/11 09:53:12;;;;;;;4.03;2.88;;;;;;;18.17;80.41;101641.16;6184802;23;20343;-78
2022/09/11 09:55:39;;;;;;;9.40;3.38;;;;;;;18.00;82.24;101640.97;6185797;23;20080;-78
2022/09/11 09:58:06;;;;;;;7.53;3.20;;;;;;;18.28;82.17;101660.31;6160560;23;20012;-78
2022/09/11 10:00:34;;;;;;;5.78;3.00;;;;;;;18.50;81.83;101654.34;6185300;23;20039;-78
2022/09/11 10:03:22;;;;;;;6.22;2.97;;;;;;;18.37;81.47;101649.09;6161368;23;20600;-78
2022/09/11 10:05:49;;;;;;;6.85;3.10;;;;;;;18.27;80.71;101636.00;6188867;23;20020;-77
2022/09/11 10:08:35;;;;;;;5.75;2.88;;;;;;;18.52;80.20;101663.97;6169763;23;20311;-79
2022/09/11 10:11:06;;;;;;;5.65;2.90;;;;;;;18.39;80.41;101646.97;6184760;23;20102;-78
2022/09/11 10:13:51;;;;;;;6.13;2.70;;;;;;;18.55;79.76;101654.50;6186928;23;19996;-78
2022/09/11 10:16:28;;;;;;;6.40;3.05;;;;;;;18.63;78.65;101653.34;6137699;23;20059;-78
2022/09/11 10:18:54;;;;;;;6.38;2.97;;;;;;;18.44;80.07;101652.53;6161359;23;20055;-78
2022/09/11 10:21:21;;;;;;;5.85;3.00;;;;;;;18.44;80.00;101664.31;6159154;23;20307;-78
2022/09/11 10:23:53;;;;;;;4.53;3.10;;;;;;;18.65;78.92;101659.41;6159774;23;20478;-77
2022/09/11 10:26:37;;;;;;;4.00;3.15;;;;;;;18.48;78.91;101660.06;6186551;23;20025;-78
2022/09/11 10:29:25;;;;;;;7.30;3.20;;;;;;;18.50;77.94;101659.81;6157202;23;20418;-78
2022/09/11 10:32:01;;;;;;;9.15;3.33;;;;;;;18.47;78.93;101652.91;6186400;23;20024;-79
2022/09/11 10:34:39;;;;;;;5.38;3.00;;;;;;;18.80;78.11;101661.72;6185363;23;20008;-79
2022/09/11 10:37:12;;;;;;;5.40;3.08;;;;;;;18.84;78.57;101658.31;6185954;23;20294;-79
2022/09/11 10:39:41;;;;;;;5.60;3.00;;;;;;;18.94;77.17;101657.72;6160079;23;20005;-79
2022/09/11 10:42:27;;;;;;;6.05;3.28;;;;;;;19.03;74.96;101659.03;6160611;23;20024;-79
2022/09/11 10:45:00;;;;;;;5.05;3.00;;;;;;;18.88;76.43;101659.50;6185040;23;19997;-78
2022/09/11 10:47:29;;;;;;;4.80;2.60;;;;;;;18.68;76.70;101637.13;6184850;23;20005;-79
2022/09/11 10:50:16;;;;;;;7.25;3.45;;;;;;;18.92;74.41;101654.41;6135003;23;20009;-79
2022/09/11 10:52:57;;;;;;;4.82;3.00;;;;;;;18.90;75.99;101656.53;6182755;23;20028;-78
2022/09/11 10:55:34;;;;;;;5.00;2.65;;;;;;;18.87;75.57;101638.72;6158487;23;20000;-79
2022/09/11 10:58:34;;;;;;;5.22;2.95;;;;;;;18.82;74.17;101635.88;6158856;23;20039;-79
2022/09/11 11:01:00;;;;;;;5.55;3.00;;;;;;;19.09;74.29;101641.72;6096090;23;20018;-79
2022/09/11 11:03:28;;;;;;;5.60;3.05;;;;;;;18.83;74.33;101628.53;6159527;23;20008;-80
2022/09/11 11:06:19;;;;;;;9.40;3.30;;;;;;;18.75;74.90;101637.88;6185795;23;20015;-78
2022/09/11 11:09:03;;;;;;;5.20;2.90;;;;;;;18.78;75.96;101654.59;6184482;23;20004;-79
2022/09/11 11:11:57;;;;;;;4.63;2.72;;;;;;;18.66;75.58;101655.59;6184942;23;20005;-79
2022/09/11 11:14:28;;;;;;;4.20;2.88;;;;;;;18.44;76.32;101650.69;6185921;23;20076;-79
2022/09/11 11:17:08;;;;;;;4.32;2.88;;;;;;;18.34;76.98;101649.53;6184121;23;20404;-79
2022/09/11 11:19:55;;;;;;;3.75;2.78;;;;;;;18.31;76.06;101653.59;6185492;23;20032;-79
2022/09/11 11:23:00;;;;;;;5.47;3.33;;;;;;;18.27;76.74;101652.34;6159369;23;20032;-79
2022/09/11 11:25:47;;;;;;;6.22;2.97;;;;;;;18.26;77.84;101653.44;6126751;23;20008;-80
2022/09/11 11:28:30;;;;;;;5.85;3.05;;;;;;;18.17;79.34;101655.63;6186766;23;20478;-79
2022/09/11 11:31:02;;;;;;;6.15;2.90;;;;;;;18.25;80.14;101655.31;6159946;23;20009;-78
2022/09/11 11:33:36;;;;;;;5.82;2.78;;;;;;;18.03;80.74;101643.25;6186105;23;20017;-77
2022/09/11 11:36:16;;;;;;;;;;;;;;;18.08;79.57;101643.41;6185476;23;20112;-77
2022/09/11 11:38:59;;;;;;;5.57;2.92;;;;;;;18.10;78.14;101635.81;6184172;23;19915;-78
2022/09/11 11:41:43;;;;;;;5.18;2.63;;;;;;;18.16;77.93;101644.97;6184382;23;20388;-77
2022/09/11 11:44:14;;;;;;;6.45;2.70;;;;;;;18.08;78.37;101636.06;6185032;23;20033;-77
2022/09/11 11:46:48;;;;;;;4.75;2.33;;;;;;;17.95;78.46;101600.81;6162437;23;20029;-79
2022/09/11 11:49:22;;;;;;;4.65;2.72;;;;;;;18.16;77.87;101639.53;6159014;23;20008;-78
2022/09/11 11:52:06;;;;;;;7.50;2.80;;;;;;;18.25;77.32;101641.69;6187421;23;20029;-79
2022/09/11 11:54:42;;;;;;;6.55;2.90;;;;;;;18.29;76.78;101633.91;6185577;23;20000;-80
2022/09/11 11:57:17;;;;;;;6.47;2.72;;;;;;;18.40;76.19;101652.19;6185795;23;20029;-79
2022/09/11 12:00:00;;;;;;;4.28;2.50;;;;;;;18.63;74.95;101647.88;6188699;23;20024;-79
2022/09/11 12:02:48;;;;;;;6.35;2.78;;;;;;;18.86;74.99;101649.88;6158482;23;20079;-79
2022/09/11 12:05:19;;;;;;;3.80;2.78;;;;;;;18.36;75.49;101628.34;6185822;23;20013;-79
2022/09/11 12:07:46;;;;;;;7.25;2.65;;;;;;;18.13;75.79;101635.34;6183418;23;20013;-79
2022/09/11 12:10:29;;;;;;;5.30;2.60;;;;;;;17.98;74.51;101645.78;6158995;23;20009;-78
2022/09/11 12:12:59;;;;;;;7.53;2.95;;;;;;;18.05;75.88;101649.31;6185110;23;20047;-78
2022/09/11 12:15:32;;;;;;;4.43;2.95;;;;;;;18.17;75.00;101647.44;6158457;23;20005;-78
2022/09/11 12:18:22;;;;;;;6.65;2.65;;;;;;;18.47;74.00;101642.00;6160222;23;20020;-78
2022/09/11 12:20:48;;;;;;;6.40;2.50;;;;;;;18.45;74.34;101643.34;6161677;23;20359;-78
2022/09/11 12:23:53;;;;;;;6.35;3.20;;;;;;;18.55;72.78;101635.44;6188758;23;20013;-80
2022/09/11 12:26:21;;;;;;;4.05;2.50;;;;;;;18.59;71.36;101627.63;6185840;23;20434;-78
2022/09/11 12:28:47;;;;;;;4.53;2.40;;;;;;;18.69;77.73;101636.06;6139989;23;20048;-80
2022/09/11 12:31:15;;;;;;;5.72;2.42;;;;;;;18.63;82.07;101642.44;6189735;23;20009;-79
2022/09/11 12:33:40;;;;;;;5.07;2.38;;;;;;;18.57;84.91;101646.91;6163525;23;20012;-78
2022/09/11 12:36:32;;;;;;;6.20;2.33;;;;;;;18.29;85.77;101633.91;6189769;23;20076;-79
2022/09/11 12:39:22;;;;;;;6.07;2.63;;;;;;;18.22;86.44;101636.72;6160294;23;20008;-80
2022/09/11 12:41:48;;;;;;;6.72;2.47;;;;;;;18.07;86.83;101628.91;6159550;23;20316;-79
2022/09/11 12:44:45;;;;;;;6.60;2.47;;;;;;;17.83;88.16;101625.25;6185503;23;20023;-79
2022/09/11 12:47:22;;;;;;;5.20;2.20;;;;;;;17.73;88.78;101624.09;6057688;23;20067;-79
2022/09/11 12:50:11;;;;;;;7.43;2.60;;;;;;;17.86;89.96;101645.75;6185904;23;20012;-79
2022/09/11 12:52:42;;;;;;;7.28;2.38;;;;;;;17.82;92.74;101626.31;6166116;23;20083;-78
2022/09/11 12:55:30;;;;;;;4.85;2.30;;;;;;;17.84;90.84;101648.69;6186774;23;20044;-78
2022/09/11 12:58:29;;;;;;;6.90;2.45;;;;;;;17.82;90.77;101631.75;6187304;23;20012;-79
2022/09/11 13:01:07;;;;;;;9.10;2.35;;;;;;;17.78;91.22;101649.59;6160263;23;20005;-78
2022/09/11 13:03:33;;;;;;;5.65;2.63;;;;;;;17.69;91.54;101634.59;6160339;23;20024;-79
2022/09/11 13:06:09;;;;;;;4.40;1.92;;;;;;;17.65;90.34;101598.00;6135991;23;20120;-78
2022/09/11 13:08:58;;;;;;;3.92;2.00;;;;;;;18.08;89.25;101633.34;6186745;23;20005;-79
2022/09/11 13:11:40;;;;;;;10.88;2.15;;;;;;;18.05;91.17;101622.06;6146247;23;20008;-79
2022/09/11 13:14:27;;;;;;;5.97;2.20;;;;;;;18.23;90.47;101632.91;6186921;23;19996;-78
2022/09/11 13:16:57;;;;;;;4.05;2.20;;;;;;;17.98;90.28;101592.19;6186369;23;20080;-79
2022/09/11 13:19:30;;;;;;;4.70;2.50;;;;;;;18.19;90.55;101636.34;6186438;23;20045;-79
2022/09/11 13:21:56;;;;;;;10.25;2.28;;;;;;;18.05;90.83;101641.97;6186196;23;20012;-79
2022/09/11 13:24:32;;;;;;;5.95;2.40;;;;;;;17.99;90.19;101623.81;6135702;23;20009;-79